TAM2455 SBBR-SBCF
Flight info
| Callsign | TAM2455 |
|---|---|
| Flight time | 0h 53m |
| Altitude | 37000 |
| Route | GEPMO UZ35 REINA |
| Aircraft | A20N/M-SDE2E3FGHIRWXY/LB1 |
Departure
| Time | 2026-05-06 23:05 |
|---|---|
| Airport | Presidente Juscelino Kubitschek International Airport (SBBR) |
Arrival
| Time | 2026-05-06 23:58 |
|---|---|
| Airport | Tancredo Neves International Airport (SBCF) |
| Time | Latitude | Longitude | Altitude | Speed | Heading |
|---|---|---|---|---|---|
| 2026-05-06 22:44 | -15.87124 | -47.91817 | 3464 ft | 0 kts | 176° |
| 2026-05-06 22:53 | -15.87121 | -47.91817 | 3464 ft | 2 kts | 174° |
| 2026-05-06 22:53 | -15.87106 | -47.91818 | 3464 ft | 2 kts | 175° |
| 2026-05-06 22:53 | -15.87093 | -47.91819 | 3464 ft | 2 kts | 174° |
| 2026-05-06 22:54 | -15.87077 | -47.91821 | 3463 ft | 2 kts | 169° |
| 2026-05-06 22:54 | -15.87067 | -47.91831 | 3463 ft | 2 kts | 85° |
| 2026-05-06 22:54 | -15.87067 | -47.91836 | 3464 ft | 0 kts | 86° |
| 2026-05-06 22:59 | -15.87066 | -47.91821 | 3462 ft | 5 kts | 87° |
| 2026-05-06 22:59 | -15.87062 | -47.91754 | 3464 ft | 13 kts | 87° |
| 2026-05-06 22:59 | -15.87055 | -47.91653 | 3463 ft | 13 kts | 86° |
| 2026-05-06 22:59 | -15.87047 | -47.91609 | 3464 ft | 8 kts | 59° |
| 2026-05-06 23:00 | -15.86967 | -47.91598 | 3464 ft | 16 kts | 356° |
| 2026-05-06 23:00 | -15.86831 | -47.91608 | 3465 ft | 22 kts | 355° |
| 2026-05-06 23:00 | -15.86669 | -47.91620 | 3464 ft | 21 kts | 357° |
| 2026-05-06 23:00 | -15.86526 | -47.91629 | 3464 ft | 15 kts | 355° |
| 2026-05-06 23:01 | -15.86483 | -47.91731 | 3464 ft | 21 kts | 267° |
| 2026-05-06 23:01 | -15.86496 | -47.91908 | 3461 ft | 29 kts | 266° |
| 2026-05-06 23:01 | -15.86510 | -47.92122 | 3460 ft | 25 kts | 267° |
| 2026-05-06 23:01 | -15.86521 | -47.92305 | 3461 ft | 29 kts | 265° |
| 2026-05-06 23:02 | -15.86536 | -47.92535 | 3462 ft | 35 kts | 266° |
| 2026-05-06 23:02 | -15.86547 | -47.92735 | 3461 ft | 17 kts | 274° |
| 2026-05-06 23:02 | -15.86521 | -47.92763 | 3461 ft | 7 kts | 341° |
| 2026-05-06 23:02 | -15.86485 | -47.92767 | 3459 ft | 0 kts | 356° |
| 2026-05-06 23:03 | -15.86465 | -47.92768 | 3460 ft | 7 kts | 356° |
| 2026-05-06 23:03 | -15.86393 | -47.92738 | 3459 ft | 16 kts | 43° |
| 2026-05-06 23:04 | -15.86349 | -47.92613 | 3461 ft | 25 kts | 86° |
| 2026-05-06 23:04 | -15.86321 | -47.92184 | 3466 ft | 93 kts | 85° |
| 2026-05-06 23:04 | -15.86265 | -47.91310 | 3464 ft | 146 kts | 86° |
| 2026-05-06 23:04 | -15.86180 | -47.90135 | 3627 ft | 175 kts | 88° |
| 2026-05-06 23:05 | -15.86103 | -47.88848 | 4258 ft | 175 kts | 88° |
| 2026-05-06 23:05 | -15.86021 | -47.87659 | 5232 ft | 156 kts | 88° |
| 2026-05-06 23:05 | -15.85940 | -47.86515 | 5729 ft | 166 kts | 88° |
| 2026-05-06 23:05 | -15.85853 | -47.85249 | 6050 ft | 186 kts | 88° |
| 2026-05-06 23:06 | -15.85757 | -47.83845 | 6404 ft | 206 kts | 87° |
| 2026-05-06 23:06 | -15.85651 | -47.82283 | 6795 ft | 227 kts | 87° |
| 2026-05-06 23:06 | -15.85783 | -47.80579 | 7318 ft | 244 kts | 108° |
| 2026-05-06 23:06 | -15.86652 | -47.79014 | 7871 ft | 265 kts | 132° |
| 2026-05-06 23:07 | -15.88265 | -47.77966 | 8549 ft | 283 kts | 159° |
| 2026-05-06 23:07 | -15.90237 | -47.77728 | 9003 ft | 293 kts | 184° |
| 2026-05-06 23:07 | -15.92222 | -47.78336 | 9559 ft | 303 kts | 202° |
| 2026-05-06 23:07 | -15.94107 | -47.79265 | 10538 ft | 305 kts | 204° |
| 2026-05-06 23:08 | -15.96073 | -47.80211 | 11024 ft | 325 kts | 202° |
| 2026-05-06 23:08 | -15.98236 | -47.81143 | 11366 ft | 348 kts | 200° |
| 2026-05-06 23:08 | -16.00550 | -47.82052 | 11832 ft | 364 kts | 199° |
| 2026-05-06 23:08 | -16.03005 | -47.82973 | 12062 ft | 386 kts | 198° |
| 2026-05-06 23:09 | -16.05625 | -47.83822 | 12326 ft | 402 kts | 192° |
| 2026-05-06 23:09 | -16.08390 | -47.84322 | 12986 ft | 405 kts | 185° |
| 2026-05-06 23:09 | -16.11209 | -47.84472 | 13701 ft | 407 kts | 179° |
| 2026-05-06 23:09 | -16.13085 | -47.84349 | 14109 ft | 409 kts | 170° |
| 2026-05-06 23:10 | -16.16681 | -47.83090 | 14926 ft | 411 kts | 150° |
| 2026-05-06 23:10 | -16.18995 | -47.81347 | 15507 ft | 414 kts | 137° |
| 2026-05-06 23:10 | -16.21029 | -47.79201 | 16087 ft | 417 kts | 133° |
| 2026-05-06 23:10 | -16.23005 | -47.76964 | 16656 ft | 421 kts | 133° |
| 2026-05-06 23:11 | -16.25011 | -47.74738 | 17201 ft | 425 kts | 134° |
| 2026-05-06 23:11 | -16.27081 | -47.72519 | 17746 ft | 428 kts | 135° |
| 2026-05-06 23:11 | -16.29165 | -47.70340 | 18281 ft | 431 kts | 136° |
| 2026-05-06 23:11 | -16.31302 | -47.68136 | 18761 ft | 434 kts | 136° |
| 2026-05-06 23:12 | -16.33297 | -47.66087 | 19218 ft | 436 kts | 136° |
| 2026-05-06 23:12 | -16.35470 | -47.63858 | 19688 ft | 439 kts | 136° |
| 2026-05-06 23:12 | -16.37652 | -47.61618 | 20158 ft | 442 kts | 136° |
| 2026-05-06 23:12 | -16.39849 | -47.59361 | 20621 ft | 444 kts | 136° |
| 2026-05-06 23:13 | -16.42054 | -47.57094 | 21089 ft | 447 kts | 136° |
| 2026-05-06 23:13 | -16.44272 | -47.54812 | 21556 ft | 450 kts | 137° |
| 2026-05-06 23:13 | -16.46504 | -47.52516 | 22009 ft | 453 kts | 137° |
| 2026-05-06 23:13 | -16.48751 | -47.50203 | 22456 ft | 456 kts | 137° |
| 2026-05-06 23:14 | -16.51018 | -47.47868 | 22908 ft | 458 kts | 137° |
| 2026-05-06 23:14 | -16.53285 | -47.45533 | 23354 ft | 461 kts | 137° |
| 2026-05-06 23:14 | -16.54780 | -47.43993 | 23638 ft | 463 kts | 137° |
| 2026-05-06 23:14 | -16.57073 | -47.41630 | 24004 ft | 465 kts | 137° |
| 2026-05-06 23:15 | -16.59380 | -47.39251 | 24361 ft | 468 kts | 137° |
| 2026-05-06 23:15 | -16.62454 | -47.36079 | 24845 ft | 471 kts | 137° |
| 2026-05-06 23:15 | -16.64035 | -47.34447 | 25064 ft | 473 kts | 137° |
| 2026-05-06 23:15 | -16.67148 | -47.31233 | 25520 ft | 476 kts | 138° |
| 2026-05-06 23:16 | -16.68703 | -47.29627 | 25740 ft | 477 kts | 138° |
| 2026-05-06 23:17 | -16.83222 | -47.14615 | 27346 ft | 488 kts | 139° |
| 2026-05-06 23:18 | -16.85641 | -47.12113 | 27535 ft | 489 kts | 139° |
| 2026-05-06 23:18 | -16.88076 | -47.09702 | 27702 ft | 489 kts | 141° |
| 2026-05-06 23:18 | -16.90537 | -47.07351 | 27906 ft | 488 kts | 141° |
| 2026-05-06 23:18 | -16.93050 | -47.04963 | 28130 ft | 488 kts | 141° |
| 2026-05-06 23:19 | -16.95544 | -47.02581 | 28569 ft | 482 kts | 141° |
| 2026-05-06 23:19 | -16.97954 | -47.00263 | 29354 ft | 472 kts | 142° |
| 2026-05-06 23:19 | -17.00403 | -46.97903 | 29697 ft | 474 kts | 142° |
| 2026-05-06 23:19 | -17.02832 | -46.95561 | 29941 ft | 476 kts | 142° |
| 2026-05-06 23:20 | -17.05272 | -46.93206 | 30241 ft | 477 kts | 142° |
| 2026-05-06 23:20 | -17.07683 | -46.90872 | 30906 ft | 467 kts | 142° |
| 2026-05-06 23:20 | -17.10029 | -46.88599 | 31449 ft | 464 kts | 142° |
| 2026-05-06 23:20 | -17.12400 | -46.86305 | 31730 ft | 465 kts | 143° |
| 2026-05-06 23:21 | -17.14775 | -46.84009 | 32125 ft | 463 kts | 143° |
| 2026-05-06 23:21 | -17.17117 | -46.81739 | 32717 ft | 456 kts | 143° |
| 2026-05-06 23:21 | -17.19418 | -46.79500 | 33456 ft | 446 kts | 143° |
| 2026-05-06 23:21 | -17.21679 | -46.77292 | 34006 ft | 444 kts | 144° |
| 2026-05-06 23:22 | -17.23944 | -46.75086 | 34228 ft | 446 kts | 144° |
| 2026-05-06 23:22 | -17.26223 | -46.72868 | 34386 ft | 449 kts | 144° |
| 2026-05-06 23:22 | -17.28515 | -46.70636 | 34558 ft | 451 kts | 144° |
| 2026-05-06 23:22 | -17.30809 | -46.68399 | 34732 ft | 452 kts | 144° |
| 2026-05-06 23:23 | -17.33118 | -46.66146 | 34890 ft | 454 kts | 144° |
| 2026-05-06 23:23 | -17.35433 | -46.63885 | 35029 ft | 455 kts | 144° |
| 2026-05-06 23:23 | -17.37752 | -46.61620 | 35178 ft | 456 kts | 144° |
| 2026-05-06 23:23 | -17.40074 | -46.59351 | 35349 ft | 456 kts | 144° |
| 2026-05-06 23:24 | -17.42345 | -46.57128 | 35816 ft | 448 kts | 144° |
| 2026-05-06 23:24 | -17.44584 | -46.54930 | 36564 ft | 436 kts | 144° |
| 2026-05-06 23:24 | -17.46790 | -46.52769 | 36936 ft | 433 kts | 144° |
| 2026-05-06 23:24 | -17.48996 | -46.50615 | 37072 ft | 433 kts | 144° |
| 2026-05-06 23:25 | -17.51224 | -46.48444 | 37094 ft | 440 kts | 144° |
| 2026-05-06 23:25 | -17.55732 | -46.44040 | 37093 ft | 443 kts | 144° |
| 2026-05-06 23:26 | -17.60226 | -46.39633 | 37094 ft | 443 kts | 144° |
| 2026-05-06 23:26 | -17.64700 | -46.35247 | 37099 ft | 442 kts | 144° |
| 2026-05-06 23:27 | -17.69048 | -46.30981 | 37101 ft | 442 kts | 144° |
| 2026-05-06 23:27 | -17.73535 | -46.26576 | 37104 ft | 442 kts | 144° |
| 2026-05-06 23:28 | -17.78002 | -46.22188 | 37110 ft | 442 kts | 144° |
| 2026-05-06 23:28 | -17.82487 | -46.17778 | 37114 ft | 442 kts | 144° |
| 2026-05-06 23:29 | -17.86975 | -46.13363 | 37115 ft | 442 kts | 144° |
| 2026-05-06 23:29 | -17.91468 | -46.08938 | 37119 ft | 441 kts | 144° |
| 2026-05-06 23:30 | -17.95951 | -46.04520 | 37123 ft | 441 kts | 144° |
| 2026-05-06 23:30 | -18.00376 | -46.00154 | 37121 ft | 441 kts | 144° |
| 2026-05-06 23:31 | -18.04851 | -45.95736 | 37127 ft | 441 kts | 144° |
| 2026-05-06 23:31 | -18.09315 | -45.91326 | 37125 ft | 440 kts | 144° |
| 2026-05-06 23:32 | -18.13778 | -45.86912 | 37125 ft | 440 kts | 144° |
| 2026-05-06 23:32 | -18.18235 | -45.82503 | 37125 ft | 440 kts | 144° |
| 2026-05-06 23:33 | -18.22691 | -45.78089 | 37127 ft | 440 kts | 144° |
| 2026-05-06 23:33 | -18.27118 | -45.73702 | 37119 ft | 439 kts | 144° |
| 2026-05-06 23:34 | -18.31566 | -45.69292 | 37118 ft | 439 kts | 144° |
| 2026-05-06 23:34 | -18.36015 | -45.64876 | 37117 ft | 439 kts | 144° |
| 2026-05-06 23:35 | -18.40452 | -45.60469 | 37122 ft | 439 kts | 144° |
| 2026-05-06 23:35 | -18.44723 | -45.55857 | 37117 ft | 438 kts | 136° |
| 2026-05-06 23:36 | -18.48362 | -45.50867 | 37117 ft | 425 kts | 135° |
| 2026-05-06 23:36 | -18.52018 | -45.45881 | 37118 ft | 431 kts | 135° |
| 2026-05-06 23:37 | -18.55667 | -45.40884 | 36609 ft | 431 kts | 135° |
| 2026-05-06 23:37 | -18.57474 | -45.38407 | 35925 ft | 433 kts | 135° |
| 2026-05-06 23:37 | -18.59317 | -45.35881 | 35070 ft | 437 kts | 134° |
| 2026-05-06 23:37 | -18.61175 | -45.33332 | 34256 ft | 439 kts | 134° |
| 2026-05-06 23:38 | -18.63041 | -45.30769 | 33328 ft | 440 kts | 134° |
| 2026-05-06 23:38 | -18.64920 | -45.28188 | 32290 ft | 444 kts | 134° |
| 2026-05-06 23:38 | -18.66795 | -45.25610 | 31503 ft | 443 kts | 134° |
| 2026-05-06 23:38 | -18.68647 | -45.23060 | 30794 ft | 441 kts | 133° |
| 2026-05-06 23:39 | -18.70498 | -45.20507 | 30335 ft | 433 kts | 133° |
| 2026-05-06 23:39 | -18.72324 | -45.17992 | 29625 ft | 430 kts | 133° |
| 2026-05-06 23:39 | -18.74125 | -45.15510 | 29123 ft | 424 kts | 133° |
| 2026-05-06 23:39 | -18.75888 | -45.13082 | 28547 ft | 419 kts | 133° |
| 2026-05-06 23:40 | -18.77647 | -45.10661 | 27997 ft | 414 kts | 132° |
| 2026-05-06 23:40 | -18.79391 | -45.08259 | 27435 ft | 409 kts | 132° |
| 2026-05-06 23:40 | -18.81117 | -45.05882 | 26893 ft | 405 kts | 132° |
| 2026-05-06 23:40 | -18.82822 | -45.03531 | 26329 ft | 402 kts | 131° |
| 2026-05-06 23:41 | -18.84514 | -45.01200 | 25755 ft | 400 kts | 131° |
| 2026-05-06 23:41 | -18.86199 | -44.98875 | 25220 ft | 396 kts | 130° |
| 2026-05-06 23:41 | -18.87872 | -44.96566 | 24653 ft | 395 kts | 130° |
| 2026-05-06 23:41 | -18.89535 | -44.94271 | 24096 ft | 393 kts | 130° |
| 2026-05-06 23:42 | -18.91144 | -44.92050 | 23513 ft | 392 kts | 129° |
| 2026-05-06 23:42 | -18.92789 | -44.89775 | 22995 ft | 387 kts | 129° |
| 2026-05-06 23:42 | -18.94414 | -44.87525 | 22453 ft | 383 kts | 129° |
| 2026-05-06 23:42 | -18.96033 | -44.85283 | 21908 ft | 380 kts | 129° |
| 2026-05-06 23:43 | -18.97632 | -44.83069 | 21368 ft | 377 kts | 128° |
| 2026-05-06 23:43 | -18.99217 | -44.80874 | 20832 ft | 375 kts | 128° |
| 2026-05-06 23:43 | -19.00773 | -44.78719 | 20298 ft | 373 kts | 128° |
| 2026-05-06 23:43 | -19.02364 | -44.76513 | 19734 ft | 372 kts | 128° |
| 2026-05-06 23:44 | -19.03904 | -44.74378 | 19178 ft | 371 kts | 128° |
| 2026-05-06 23:44 | -19.05463 | -44.72216 | 18642 ft | 370 kts | 127° |
| 2026-05-06 23:44 | -19.07018 | -44.70059 | 18112 ft | 367 kts | 127° |
| 2026-05-06 23:44 | -19.08561 | -44.67916 | 17566 ft | 364 kts | 127° |
| 2026-05-06 23:45 | -19.10090 | -44.65793 | 17033 ft | 361 kts | 127° |
| 2026-05-06 23:45 | -19.11607 | -44.63682 | 16503 ft | 359 kts | 127° |
| 2026-05-06 23:45 | -19.13110 | -44.61592 | 15972 ft | 357 kts | 127° |
| 2026-05-06 23:45 | -19.14610 | -44.59503 | 15447 ft | 355 kts | 127° |
| 2026-05-06 23:46 | -19.16099 | -44.57430 | 14882 ft | 355 kts | 127° |
| 2026-05-06 23:46 | -19.17590 | -44.55354 | 14383 ft | 352 kts | 127° |
| 2026-05-06 23:46 | -19.19070 | -44.53293 | 13867 ft | 351 kts | 127° |
| 2026-05-06 23:46 | -19.20546 | -44.51237 | 13321 ft | 348 kts | 127° |
| 2026-05-06 23:47 | -19.21949 | -44.49283 | 12838 ft | 345 kts | 127° |
| 2026-05-06 23:47 | -19.23391 | -44.47272 | 12330 ft | 342 kts | 127° |
| 2026-05-06 23:47 | -19.24825 | -44.45273 | 11829 ft | 339 kts | 127° |
| 2026-05-06 23:47 | -19.26241 | -44.43297 | 11324 ft | 336 kts | 126° |
| 2026-05-06 23:48 | -19.27651 | -44.41332 | 10835 ft | 334 kts | 126° |
| 2026-05-06 23:48 | -19.29053 | -44.39374 | 10372 ft | 331 kts | 126° |
| 2026-05-06 23:48 | -19.30457 | -44.37414 | 10213 ft | 336 kts | 126° |
| 2026-05-06 23:48 | -19.31771 | -44.35386 | 10128 ft | 329 kts | 119° |
| 2026-05-06 23:49 | -19.32695 | -44.33364 | 10052 ft | 314 kts | 110° |
| 2026-05-06 23:49 | -19.33385 | -44.31256 | 9984 ft | 298 kts | 108° |
| 2026-05-06 23:49 | -19.34043 | -44.29228 | 9865 ft | 286 kts | 108° |
| 2026-05-06 23:49 | -19.34452 | -44.27984 | 9634 ft | 287 kts | 108° |
| 2026-05-06 23:50 | -19.35079 | -44.26080 | 9109 ft | 292 kts | 108° |
| 2026-05-06 23:50 | -19.36445 | -44.22192 | 8191 ft | 284 kts | 117° |
| 2026-05-06 23:50 | -19.37594 | -44.20496 | 7597 ft | 283 kts | 133° |
| 2026-05-06 23:51 | -19.39077 | -44.19137 | 7090 ft | 280 kts | 139° |
| 2026-05-06 23:51 | -19.40541 | -44.17856 | 6908 ft | 262 kts | 138° |
| 2026-05-06 23:51 | -19.41441 | -44.17061 | 6913 ft | 247 kts | 138° |
| 2026-05-06 23:51 | -19.42702 | -44.15942 | 6921 ft | 226 kts | 138° |
| 2026-05-06 23:52 | -19.43854 | -44.14915 | 6918 ft | 208 kts | 137° |
| 2026-05-06 23:52 | -19.45226 | -44.13657 | 6849 ft | 185 kts | 136° |
| 2026-05-06 23:52 | -19.46143 | -44.12804 | 6737 ft | 166 kts | 136° |
| 2026-05-06 23:52 | -19.46708 | -44.12277 | 6639 ft | 155 kts | 136° |
| 2026-05-06 23:53 | -19.47504 | -44.11537 | 6362 ft | 150 kts | 135° |
| 2026-05-06 23:53 | -19.48285 | -44.10812 | 6038 ft | 148 kts | 135° |
| 2026-05-06 23:53 | -19.49059 | -44.10095 | 5736 ft | 147 kts | 135° |
| 2026-05-06 23:53 | -19.49823 | -44.09389 | 5443 ft | 145 kts | 135° |
| 2026-05-06 23:54 | -19.50570 | -44.08696 | 5131 ft | 144 kts | 135° |
| 2026-05-06 23:54 | -19.51319 | -44.08006 | 4812 ft | 142 kts | 135° |
| 2026-05-06 23:54 | -19.52074 | -44.07311 | 4500 ft | 143 kts | 135° |
| 2026-05-06 23:54 | -19.52812 | -44.06630 | 4193 ft | 142 kts | 135° |
| 2026-05-06 23:55 | -19.53551 | -44.05952 | 4141 ft | 140 kts | 135° |
| 2026-05-06 23:55 | -19.54298 | -44.05263 | 4172 ft | 143 kts | 135° |
| 2026-05-06 23:55 | -19.55015 | -44.04603 | 4184 ft | 131 kts | 135° |
| 2026-05-06 23:55 | -19.55701 | -44.03971 | 4188 ft | 131 kts | 135° |
| 2026-05-06 23:56 | -19.56391 | -44.03333 | 4172 ft | 132 kts | 135° |
| 2026-05-06 23:56 | -19.57076 | -44.02698 | 4086 ft | 130 kts | 135° |
| 2026-05-06 23:56 | -19.57764 | -44.02062 | 3938 ft | 131 kts | 135° |
| 2026-05-06 23:56 | -19.58449 | -44.01428 | 3769 ft | 132 kts | 136° |
| 2026-05-06 23:57 | -19.59134 | -44.00793 | 3593 ft | 131 kts | 136° |
| 2026-05-06 23:57 | -19.59820 | -44.00157 | 3410 ft | 131 kts | 136° |
| 2026-05-06 23:57 | -19.60509 | -43.99517 | 3242 ft | 132 kts | 137° |
| 2026-05-06 23:57 | -19.61205 | -43.98866 | 3006 ft | 134 kts | 138° |
| 2026-05-06 23:58 | -19.61900 | -43.98227 | 2840 ft | 131 kts | 139° |
| 2026-05-06 23:58 | -19.62594 | -43.97592 | 2757 ft | 132 kts | 139° |
| 2026-05-06 23:58 | -19.63151 | -43.97082 | 2752 ft | 77 kts | 139° |
| 2026-05-06 23:58 | -19.63475 | -43.96783 | 2751 ft | 38 kts | 140° |
| 2026-05-06 23:59 | -19.63593 | -43.96584 | 2754 ft | 22 kts | 107° |
| 2026-05-06 23:59 | -19.63608 | -43.96521 | 2753 ft | 7 kts | 99° |
| 2026-05-06 23:59 | -19.63559 | -43.96480 | 2752 ft | 14 kts | 347° |
| 2026-05-06 23:59 | -19.63460 | -43.96566 | 2753 ft | 23 kts | 319° |
| 2026-05-07 00:00 | -19.63343 | -43.96674 | 2752 ft | 24 kts | 319° |
| 2026-05-07 00:00 | -19.63248 | -43.96698 | 2752 ft | 14 kts | 22° |
| 2026-05-07 00:00 | -19.63174 | -43.96597 | 2752 ft | 17 kts | 55° |
| 2026-05-07 00:00 | -19.63137 | -43.96549 | 2752 ft | 5 kts | 50° |
| 2026-05-07 00:01 | -19.63126 | -43.96535 | 2756 ft | 0 kts | 49° |